sensor_id;sensor_type;location;lat;lon;timestamp;P1;durP1;ratioP1;P2;durP2;ratioP2
18738;SDS011;9498;51.862;19.460;2022-09-03T00:01:34;10.60;;;4.80;;
18738;SDS011;9498;51.862;19.460;2022-09-03T00:04:04;10.60;;;4.20;;
18738;SDS011;9498;51.862;19.460;2022-09-03T00:06:35;9.10;;;4.23;;
18738;SDS011;9498;51.862;19.460;2022-09-03T00:09:05;9.13;;;4.03;;
18738;SDS011;9498;51.862;19.460;2022-09-03T00:11:34;9.83;;;3.90;;
18738;SDS011;9498;51.862;19.460;2022-09-03T00:14:06;7.60;;;4.00;;
18738;SDS011;9498;51.862;19.460;2022-09-03T00:16:38;8.63;;;4.67;;
18738;SDS011;9498;51.862;19.460;2022-09-03T00:19:08;8.83;;;4.17;;
18738;SDS011;9498;51.862;19.460;2022-09-03T00:21:38;9.03;;;4.67;;
18738;SDS011;9498;51.862;19.460;2022-09-03T00:24:08;9.23;;;3.90;;
18738;SDS011;9498;51.862;19.460;2022-09-03T00:26:36;11.10;;;3.97;;
18738;SDS011;9498;51.862;19.460;2022-09-03T00:29:05;9.63;;;4.80;;
18738;SDS011;9498;51.862;19.460;2022-09-03T00:31:35;15.77;;;5.10;;
18738;SDS011;9498;51.862;19.460;2022-09-03T00:34:06;8.20;;;3.83;;
18738;SDS011;9498;51.862;19.460;2022-09-03T00:36:36;8.63;;;3.97;;
18738;SDS011;9498;51.862;19.460;2022-09-03T00:39:07;8.23;;;4.03;;
18738;SDS011;9498;51.862;19.460;2022-09-03T00:41:35;8.63;;;4.40;;
18738;SDS011;9498;51.862;19.460;2022-09-03T00:46:55;7.93;;;4.20;;
18738;SDS011;9498;51.862;19.460;2022-09-03T00:49:27;7.43;;;4.13;;
18738;SDS011;9498;51.862;19.460;2022-09-03T00:52:00;12.60;;;4.43;;
18738;SDS011;9498;51.862;19.460;2022-09-03T00:54:30;9.60;;;4.17;;
18738;SDS011;9498;51.862;19.460;2022-09-03T00:57:03;6.40;;;3.63;;
18738;SDS011;9498;51.862;19.460;2022-09-03T00:59:34;6.63;;;3.87;;
18738;SDS011;9498;51.862;19.460;2022-09-03T01:02:06;7.60;;;4.03;;
18738;SDS011;9498;51.862;19.460;2022-09-03T01:04:41;9.57;;;3.90;;
18738;SDS011;9498;51.862;19.460;2022-09-03T01:07:14;6.57;;;3.93;;
18738;SDS011;9498;51.862;19.460;2022-09-03T01:09:49;9.83;;;4.63;;
18738;SDS011;9498;51.862;19.460;2022-09-03T01:12:21;7.13;;;4.50;;
18738;SDS011;9498;51.862;19.460;2022-09-03T01:14:56;10.37;;;4.47;;
18738;SDS011;9498;51.862;19.460;2022-09-03T01:17:31;10.50;;;4.40;;
18738;SDS011;9498;51.862;19.460;2022-09-03T01:20:02;8.33;;;4.30;;
18738;SDS011;9498;51.862;19.460;2022-09-03T01:25:36;11.70;;;4.80;;
18738;SDS011;9498;51.862;19.460;2022-09-03T01:28:10;10.73;;;5.70;;
18738;SDS011;9498;51.862;19.460;2022-09-03T01:30:43;10.20;;;4.37;;
18738;SDS011;9498;51.862;19.460;2022-09-03T01:33:14;7.97;;;4.03;;
18738;SDS011;9498;51.862;19.460;2022-09-03T01:35:45;10.70;;;5.13;;
18738;SDS011;9498;51.862;19.460;2022-09-03T01:38:16;10.57;;;4.73;;
18738;SDS011;9498;51.862;19.460;2022-09-03T01:40:49;10.47;;;4.73;;
18738;SDS011;9498;51.862;19.460;2022-09-03T01:43:31;10.37;;;4.70;;
18738;SDS011;9498;51.862;19.460;2022-09-03T01:46:00;11.70;;;5.03;;
18738;SDS011;9498;51.862;19.460;2022-09-03T01:48:36;11.00;;;4.50;;
18738;SDS011;9498;51.862;19.460;2022-09-03T01:51:09;8.70;;;4.23;;
18738;SDS011;9498;51.862;19.460;2022-09-03T01:53:40;10.10;;;4.40;;
18738;SDS011;9498;51.862;19.460;2022-09-03T01:56:14;10.00;;;5.17;;
18738;SDS011;9498;51.862;19.460;2022-09-03T01:58:46;11.43;;;5.10;;
18738;SDS011;9498;51.862;19.460;2022-09-03T02:01:17;8.97;;;4.77;;
18738;SDS011;9498;51.862;19.460;2022-09-03T02:03:46;9.60;;;5.13;;
18738;SDS011;9498;51.862;19.460;2022-09-03T02:06:15;7.53;;;4.70;;
18738;SDS011;9498;51.862;19.460;2022-09-03T02:08:44;9.87;;;5.13;;
18738;SDS011;9498;51.862;19.460;2022-09-03T02:11:12;9.77;;;4.40;;
18738;SDS011;9498;51.862;19.460;2022-09-03T02:13:40;10.47;;;5.17;;
18738;SDS011;9498;51.862;19.460;2022-09-03T02:16:10;12.13;;;5.53;;
18738;SDS011;9498;51.862;19.460;2022-09-03T02:18:39;12.27;;;4.73;;
18738;SDS011;9498;51.862;19.460;2022-09-03T02:21:07;10.23;;;5.03;;
18738;SDS011;9498;51.862;19.460;2022-09-03T02:23:37;8.57;;;4.83;;
18738;SDS011;9498;51.862;19.460;2022-09-03T02:26:04;10.43;;;5.03;;
18738;SDS011;9498;51.862;19.460;2022-09-03T02:28:32;9.57;;;5.03;;
18738;SDS011;9498;51.862;19.460;2022-09-03T02:31:00;13.77;;;5.40;;
18738;SDS011;9498;51.862;19.460;2022-09-03T02:33:29;10.17;;;5.47;;
18738;SDS011;9498;51.862;19.460;2022-09-03T02:35:56;11.13;;;6.33;;
18738;SDS011;9498;51.862;19.460;2022-09-03T02:38:24;9.97;;;5.77;;
18738;SDS011;9498;51.862;19.460;2022-09-03T02:40:52;17.80;;;5.97;;
18738;SDS011;9498;51.862;19.460;2022-09-03T02:43:21;11.37;;;5.97;;
18738;SDS011;9498;51.862;19.460;2022-09-03T02:45:50;12.93;;;5.93;;
18738;SDS011;9498;51.862;19.460;2022-09-03T02:48:19;12.40;;;5.70;;
18738;SDS011;9498;51.862;19.460;2022-09-03T02:50:50;12.13;;;6.43;;
18738;SDS011;9498;51.862;19.460;2022-09-03T02:53:17;11.33;;;6.03;;
18738;SDS011;9498;51.862;19.460;2022-09-03T02:55:44;11.47;;;6.37;;
18738;SDS011;9498;51.862;19.460;2022-09-03T02:58:12;11.33;;;6.90;;
18738;SDS011;9498;51.862;19.460;2022-09-03T03:00:39;13.97;;;7.33;;
18738;SDS011;9498;51.862;19.460;2022-09-03T03:03:06;11.40;;;6.17;;
18738;SDS011;9498;51.862;19.460;2022-09-03T03:05:35;15.27;;;7.10;;
18738;SDS011;9498;51.862;19.460;2022-09-03T03:08:09;13.23;;;7.50;;
18738;SDS011;9498;51.862;19.460;2022-09-03T03:10:39;12.80;;;6.83;;
18738;SDS011;9498;51.862;19.460;2022-09-03T03:13:06;12.93;;;6.27;;
18738;SDS011;9498;51.862;19.460;2022-09-03T03:15:33;13.37;;;6.67;;
18738;SDS011;9498;51.862;19.460;2022-09-03T03:18:01;13.30;;;6.87;;
18738;SDS011;9498;51.862;19.460;2022-09-03T03:20:28;12.00;;;7.00;;
18738;SDS011;9498;51.862;19.460;2022-09-03T03:22:55;17.40;;;7.03;;
18738;SDS011;9498;51.862;19.460;2022-09-03T03:25:24;14.43;;;6.93;;
18738;SDS011;9498;51.862;19.460;2022-09-03T03:27:53;14.37;;;6.97;;
18738;SDS011;9498;51.862;19.460;2022-09-03T03:30:21;12.73;;;7.13;;
18738;SDS011;9498;51.862;19.460;2022-09-03T03:32:48;12.53;;;7.00;;
18738;SDS011;9498;51.862;19.460;2022-09-03T03:35:16;15.77;;;6.97;;
18738;SDS011;9498;51.862;19.460;2022-09-03T03:37:43;14.10;;;6.67;;
18738;SDS011;9498;51.862;19.460;2022-09-03T03:40:10;16.40;;;7.27;;
18738;SDS011;9498;51.862;19.460;2022-09-03T03:42:39;11.47;;;6.70;;
18738;SDS011;9498;51.862;19.460;2022-09-03T03:45:07;11.63;;;7.03;;
18738;SDS011;9498;51.862;19.460;2022-09-03T03:47:34;10.00;;;5.90;;
18738;SDS011;9498;51.862;19.460;2022-09-03T03:50:02;10.47;;;5.97;;
18738;SDS011;9498;51.862;19.460;2022-09-03T03:52:29;13.93;;;6.40;;
18738;SDS011;9498;51.862;19.460;2022-09-03T03:54:57;10.83;;;6.00;;
18738;SDS011;9498;51.862;19.460;2022-09-03T03:57:24;12.47;;;5.60;;
18738;SDS011;9498;51.862;19.460;2022-09-03T03:59:53;11.87;;;5.93;;
18738;SDS011;9498;51.862;19.460;2022-09-03T04:02:20;12.03;;;6.30;;
18738;SDS011;9498;51.862;19.460;2022-09-03T04:04:47;11.43;;;5.50;;
18738;SDS011;9498;51.862;19.460;2022-09-03T04:07:14;9.90;;;5.63;;
18738;SDS011;9498;51.862;19.460;2022-09-03T04:09:41;11.83;;;5.90;;
18738;SDS011;9498;51.862;19.460;2022-09-03T04:12:09;10.47;;;5.80;;
18738;SDS011;9498;51.862;19.460;2022-09-03T04:14:36;8.60;;;5.73;;
18738;SDS011;9498;51.862;19.460;2022-09-03T04:17:05;8.60;;;5.57;;
18738;SDS011;9498;51.862;19.460;2022-09-03T04:19:32;14.00;;;6.00;;
18738;SDS011;9498;51.862;19.460;2022-09-03T04:21:59;12.87;;;5.93;;
18738;SDS011;9498;51.862;19.460;2022-09-03T04:24:27;9.40;;;5.80;;
18738;SDS011;9498;51.862;19.460;2022-09-03T04:26:54;13.03;;;6.03;;
18738;SDS011;9498;51.862;19.460;2022-09-03T04:29:21;12.07;;;5.33;;
18738;SDS011;9498;51.862;19.460;2022-09-03T04:31:49;11.93;;;5.50;;
18738;SDS011;9498;51.862;19.460;2022-09-03T04:34:36;9.93;;;5.77;;
18738;SDS011;9498;51.862;19.460;2022-09-03T04:37:03;10.97;;;6.57;;
18738;SDS011;9498;51.862;19.460;2022-09-03T04:39:30;13.20;;;6.80;;
18738;SDS011;9498;51.862;19.460;2022-09-03T04:41:57;12.83;;;6.70;;
18738;SDS011;9498;51.862;19.460;2022-09-03T04:44:25;13.00;;;7.70;;
18738;SDS011;9498;51.862;19.460;2022-09-03T04:46:52;15.40;;;8.10;;
18738;SDS011;9498;51.862;19.460;2022-09-03T04:49:19;16.00;;;9.57;;
18738;SDS011;9498;51.862;19.460;2022-09-03T04:51:50;17.87;;;10.97;;
18738;SDS011;9498;51.862;19.460;2022-09-03T04:54:17;22.23;;;11.10;;
18738;SDS011;9498;51.862;19.460;2022-09-03T04:56:44;20.83;;;12.13;;
18738;SDS011;9498;51.862;19.460;2022-09-03T04:59:12;26.80;;;13.40;;
18738;SDS011;9498;51.862;19.460;2022-09-03T05:01:39;26.00;;;14.10;;
18738;SDS011;9498;51.862;19.460;2022-09-03T05:04:06;27.93;;;13.70;;
18738;SDS011;9498;51.862;19.460;2022-09-03T05:06:34;28.97;;;14.27;;
18738;SDS011;9498;51.862;19.460;2022-09-03T05:09:03;26.50;;;14.40;;
18738;SDS011;9498;51.862;19.460;2022-09-03T05:11:31;27.67;;;14.40;;
18738;SDS011;9498;51.862;19.460;2022-09-03T05:13:58;26.87;;;13.70;;
18738;SDS011;9498;51.862;19.460;2022-09-03T05:16:26;21.27;;;12.60;;
18738;SDS011;9498;51.862;19.460;2022-09-03T05:18:54;23.70;;;12.17;;
18738;SDS011;9498;51.862;19.460;2022-09-03T05:21:23;19.33;;;10.93;;
18738;SDS011;9498;51.862;19.460;2022-09-03T05:23:50;14.77;;;8.70;;
18738;SDS011;9498;51.862;19.460;2022-09-03T05:26:21;15.43;;;8.73;;
18738;SDS011;9498;51.862;19.460;2022-09-03T05:28:51;17.73;;;7.30;;
18738;SDS011;9498;51.862;19.460;2022-09-03T05:31:19;12.07;;;6.93;;
18738;SDS011;9498;51.862;19.460;2022-09-03T05:33:47;12.30;;;7.77;;
18738;SDS011;9498;51.862;19.460;2022-09-03T05:36:15;12.23;;;7.13;;
18738;SDS011;9498;51.862;19.460;2022-09-03T05:38:43;13.97;;;6.67;;
18738;SDS011;9498;51.862;19.460;2022-09-03T05:41:11;11.57;;;6.27;;
18738;SDS011;9498;51.862;19.460;2022-09-03T05:43:40;10.70;;;5.63;;
18738;SDS011;9498;51.862;19.460;2022-09-03T05:46:08;8.20;;;5.47;;
18738;SDS011;9498;51.862;19.460;2022-09-03T05:48:36;11.60;;;5.30;;
18738;SDS011;9498;51.862;19.460;2022-09-03T05:51:04;10.07;;;5.13;;
18738;SDS011;9498;51.862;19.460;2022-09-03T05:53:32;11.10;;;5.43;;
18738;SDS011;9498;51.862;19.460;2022-09-03T05:56:00;6.80;;;4.60;;
18738;SDS011;9498;51.862;19.460;2022-09-03T05:58:29;7.87;;;4.60;;
18738;SDS011;9498;51.862;19.460;2022-09-03T06:00:57;7.87;;;4.67;;
18738;SDS011;9498;51.862;19.460;2022-09-03T06:03:25;8.33;;;4.73;;
18738;SDS011;9498;51.862;19.460;2022-09-03T06:05:52;8.17;;;5.07;;
18738;SDS011;9498;51.862;19.460;2022-09-03T06:08:20;9.47;;;4.80;;
18738;SDS011;9498;51.862;19.460;2022-09-03T06:10:47;12.53;;;5.10;;
18738;SDS011;9498;51.862;19.460;2022-09-03T06:13:15;9.73;;;4.63;;
18738;SDS011;9498;51.862;19.460;2022-09-03T06:15:42;11.83;;;5.00;;
18738;SDS011;9498;51.862;19.460;2022-09-03T06:18:11;10.33;;;4.67;;
18738;SDS011;9498;51.862;19.460;2022-09-03T06:20:38;10.93;;;5.43;;
18738;SDS011;9498;51.862;19.460;2022-09-03T06:23:05;11.03;;;5.00;;
18738;SDS011;9498;51.862;19.460;2022-09-03T06:25:32;9.03;;;5.07;;
18738;SDS011;9498;51.862;19.460;2022-09-03T06:28:00;8.07;;;4.70;;
18738;SDS011;9498;51.862;19.460;2022-09-03T06:30:27;8.63;;;4.43;;
18738;SDS011;9498;51.862;19.460;2022-09-03T06:32:54;8.70;;;4.60;;
18738;SDS011;9498;51.862;19.460;2022-09-03T06:35:24;10.83;;;4.67;;
18738;SDS011;9498;51.862;19.460;2022-09-03T06:37:51;10.73;;;4.67;;
18738;SDS011;9498;51.862;19.460;2022-09-03T06:40:18;8.10;;;4.23;;
18738;SDS011;9498;51.862;19.460;2022-09-03T06:42:54;9.93;;;4.20;;
18738;SDS011;9498;51.862;19.460;2022-09-03T06:45:23;11.43;;;4.80;;
18738;SDS011;9498;51.862;19.460;2022-09-03T06:47:50;9.63;;;4.63;;
18738;SDS011;9498;51.862;19.460;2022-09-03T06:50:17;14.70;;;4.87;;
18738;SDS011;9498;51.862;19.460;2022-09-03T06:52:50;12.53;;;4.27;;
18738;SDS011;9498;51.862;19.460;2022-09-03T06:55:19;8.47;;;4.60;;
18738;SDS011;9498;51.862;19.460;2022-09-03T06:57:46;10.70;;;4.57;;
18738;SDS011;9498;51.862;19.460;2022-09-03T07:00:15;6.07;;;3.70;;
18738;SDS011;9498;51.862;19.460;2022-09-03T07:02:42;8.77;;;3.97;;
18738;SDS011;9498;51.862;19.460;2022-09-03T07:05:09;10.07;;;4.30;;
18738;SDS011;9498;51.862;19.460;2022-09-03T07:07:37;10.00;;;4.70;;
18738;SDS011;9498;51.862;19.460;2022-09-03T07:10:06;7.50;;;3.90;;
18738;SDS011;9498;51.862;19.460;2022-09-03T07:12:37;7.97;;;4.33;;
18738;SDS011;9498;51.862;19.460;2022-09-03T07:15:05;8.33;;;4.33;;
18738;SDS011;9498;51.862;19.460;2022-09-03T07:17:32;6.20;;;3.53;;
18738;SDS011;9498;51.862;19.460;2022-09-03T07:20:01;11.00;;;4.10;;
18738;SDS011;9498;51.862;19.460;2022-09-03T07:22:28;8.10;;;3.30;;
18738;SDS011;9498;51.862;19.460;2022-09-03T07:24:55;7.17;;;3.30;;
18738;SDS011;9498;51.862;19.460;2022-09-03T07:27:24;7.27;;;3.33;;
18738;SDS011;9498;51.862;19.460;2022-09-03T07:29:51;6.47;;;3.07;;
18738;SDS011;9498;51.862;19.460;2022-09-03T07:32:18;6.10;;;3.00;;
18738;SDS011;9498;51.862;19.460;2022-09-03T07:34:46;5.40;;;2.77;;
18738;SDS011;9498;51.862;19.460;2022-09-03T07:37:13;5.37;;;2.77;;
18738;SDS011;9498;51.862;19.460;2022-09-03T07:39:42;7.77;;;2.70;;
18738;SDS011;9498;51.862;19.460;2022-09-03T07:42:10;4.30;;;2.43;;
18738;SDS011;9498;51.862;19.460;2022-09-03T07:44:39;9.17;;;2.63;;
18738;SDS011;9498;51.862;19.460;2022-09-03T07:47:06;7.07;;;2.73;;
18738;SDS011;9498;51.862;19.460;2022-09-03T07:49:34;7.47;;;2.77;;
18738;SDS011;9498;51.862;19.460;2022-09-03T07:52:01;11.33;;;2.87;;
18738;SDS011;9498;51.862;19.460;2022-09-03T07:54:28;3.30;;;2.40;;
18738;SDS011;9498;51.862;19.460;2022-09-03T07:56:56;8.97;;;2.93;;
18738;SDS011;9498;51.862;19.460;2022-09-03T07:59:23;6.27;;;2.57;;
18738;SDS011;9498;51.862;19.460;2022-09-03T08:01:52;5.87;;;2.80;;
18738;SDS011;9498;51.862;19.460;2022-09-03T08:04:19;4.13;;;2.37;;
18738;SDS011;9498;51.862;19.460;2022-09-03T08:06:47;6.83;;;2.33;;
18738;SDS011;9498;51.862;19.460;2022-09-03T08:09:19;7.10;;;2.73;;
18738;SDS011;9498;51.862;19.460;2022-09-03T08:11:46;4.53;;;2.40;;
18738;SDS011;9498;51.862;19.460;2022-09-03T08:14:14;8.67;;;2.73;;
18738;SDS011;9498;51.862;19.460;2022-09-03T08:16:42;5.13;;;2.63;;
18738;SDS011;9498;51.862;19.460;2022-09-03T08:19:12;9.20;;;2.30;;
18738;SDS011;9498;51.862;19.460;2022-09-03T08:21:41;5.20;;;2.57;;
18738;SDS011;9498;51.862;19.460;2022-09-03T08:24:08;7.90;;;2.13;;
18738;SDS011;9498;51.862;19.460;2022-09-03T08:26:37;4.70;;;1.90;;
18738;SDS011;9498;51.862;19.460;2022-09-03T08:29:05;4.03;;;1.90;;
18738;SDS011;9498;51.862;19.460;2022-09-03T08:31:33;3.70;;;2.07;;
18738;SDS011;9498;51.862;19.460;2022-09-03T08:34:04;5.23;;;1.97;;
18738;SDS011;9498;51.862;19.460;2022-09-03T08:36:33;4.77;;;2.10;;
18738;SDS011;9498;51.862;19.460;2022-09-03T08:39:01;4.30;;;2.10;;
18738;SDS011;9498;51.862;19.460;2022-09-03T08:41:32;2.87;;;1.70;;
18738;SDS011;9498;51.862;19.460;2022-09-03T08:44:05;4.50;;;1.80;;
18738;SDS011;9498;51.862;19.460;2022-09-03T08:46:39;5.33;;;1.93;;
18738;SDS011;9498;51.862;19.460;2022-09-03T08:49:08;6.00;;;1.90;;
18738;SDS011;9498;51.862;19.460;2022-09-03T08:51:38;3.27;;;1.80;;
18738;SDS011;9498;51.862;19.460;2022-09-03T08:54:06;4.37;;;1.87;;
18738;SDS011;9498;51.862;19.460;2022-09-03T08:56:36;3.93;;;1.70;;
18738;SDS011;9498;51.862;19.460;2022-09-03T08:59:04;5.93;;;2.00;;
18738;SDS011;9498;51.862;19.460;2022-09-03T09:01:33;6.03;;;2.30;;
18738;SDS011;9498;51.862;19.460;2022-09-03T09:04:05;4.73;;;1.80;;
18738;SDS011;9498;51.862;19.460;2022-09-03T09:06:35;7.40;;;2.10;;
18738;SDS011;9498;51.862;19.460;2022-09-03T09:09:11;7.73;;;2.23;;
18738;SDS011;9498;51.862;19.460;2022-09-03T09:11:44;3.40;;;2.07;;
18738;SDS011;9498;51.862;19.460;2022-09-03T09:14:14;7.23;;;2.00;;
18738;SDS011;9498;51.862;19.460;2022-09-03T09:16:46;4.07;;;2.00;;
18738;SDS011;9498;51.862;19.460;2022-09-03T09:19:18;7.17;;;2.43;;
18738;SDS011;9498;51.862;19.460;2022-09-03T09:21:48;4.13;;;1.97;;
18738;SDS011;9498;51.862;19.460;2022-09-03T09:24:20;3.57;;;1.90;;
18738;SDS011;9498;51.862;19.460;2022-09-03T09:26:48;12.27;;;2.47;;
18738;SDS011;9498;51.862;19.460;2022-09-03T09:29:16;3.87;;;1.83;;
18738;SDS011;9498;51.862;19.460;2022-09-03T09:31:43;6.90;;;2.73;;
18738;SDS011;9498;51.862;19.460;2022-09-03T09:34:10;3.93;;;1.87;;
18738;SDS011;9498;51.862;19.460;2022-09-03T09:36:41;4.50;;;1.90;;
18738;SDS011;9498;51.862;19.460;2022-09-03T09:39:09;4.40;;;1.90;;
18738;SDS011;9498;51.862;19.460;2022-09-03T09:41:37;5.83;;;2.00;;
18738;SDS011;9498;51.862;19.460;2022-09-03T09:44:05;7.18;;;2.67;;
18738;SDS011;9498;51.862;19.460;2022-09-03T09:46:33;7.07;;;2.10;;
18738;SDS011;9498;51.862;19.460;2022-09-03T09:49:06;4.70;;;2.23;;
18738;SDS011;9498;51.862;19.460;2022-09-03T09:51:34;6.43;;;1.60;;
18738;SDS011;9498;51.862;19.460;2022-09-03T09:54:02;4.20;;;1.60;;
18738;SDS011;9498;51.862;19.460;2022-09-03T09:56:29;5.23;;;2.20;;
18738;SDS011;9498;51.862;19.460;2022-09-03T09:59:08;4.23;;;1.90;;
18738;SDS011;9498;51.862;19.460;2022-09-03T10:01:36;6.90;;;2.45;;
18738;SDS011;9498;51.862;19.460;2022-09-03T10:04:07;12.63;;;2.63;;
18738;SDS011;9498;51.862;19.460;2022-09-03T10:06:35;5.23;;;2.30;;
18738;SDS011;9498;51.862;19.460;2022-09-03T10:09:22;4.30;;;2.00;;
18738;SDS011;9498;51.862;19.460;2022-09-03T10:11:50;5.50;;;1.87;;
18738;SDS011;9498;51.862;19.460;2022-09-03T10:14:23;4.37;;;2.17;;
18738;SDS011;9498;51.862;19.460;2022-09-03T10:16:59;4.70;;;1.93;;
18738;SDS011;9498;51.862;19.460;2022-09-03T10:19:28;6.23;;;1.87;;
18738;SDS011;9498;51.862;19.460;2022-09-03T10:22:00;5.63;;;2.30;;
18738;SDS011;9498;51.862;19.460;2022-09-03T10:24:36;3.90;;;2.00;;
18738;SDS011;9498;51.862;19.460;2022-09-03T10:27:05;4.83;;;2.30;;
18738;SDS011;9498;51.862;19.460;2022-09-03T10:29:35;4.57;;;1.83;;
18738;SDS011;9498;51.862;19.460;2022-09-03T10:32:06;4.90;;;1.90;;
18738;SDS011;9498;51.862;19.460;2022-09-03T10:34:37;6.67;;;2.10;;
18738;SDS011;9498;51.862;19.460;2022-09-03T10:37:11;5.95;;;2.00;;
18738;SDS011;9498;51.862;19.460;2022-09-03T10:39:46;6.13;;;1.67;;
18738;SDS011;9498;51.862;19.460;2022-09-03T10:42:19;8.23;;;1.63;;
18738;SDS011;9498;51.862;19.460;2022-09-03T10:44:58;9.20;;;2.33;;
18738;SDS011;9498;51.862;19.460;2022-09-03T10:47:31;7.53;;;2.00;;
18738;SDS011;9498;51.862;19.460;2022-09-03T10:50:02;8.20;;;1.87;;
18738;SDS011;9498;51.862;19.460;2022-09-03T10:52:43;6.17;;;1.90;;
18738;SDS011;9498;51.862;19.460;2022-09-03T10:55:17;3.67;;;2.13;;
18738;SDS011;9498;51.862;19.460;2022-09-03T10:57:48;5.33;;;2.00;;
18738;SDS011;9498;51.862;19.460;2022-09-03T11:00:19;5.43;;;1.83;;
18738;SDS011;9498;51.862;19.460;2022-09-03T11:05:33;5.30;;;1.60;;
18738;SDS011;9498;51.862;19.460;2022-09-03T11:08:04;5.53;;;1.83;;
18738;SDS011;9498;51.862;19.460;2022-09-03T11:10:33;3.83;;;1.70;;
18738;SDS011;9498;51.862;19.460;2022-09-03T11:13:02;4.63;;;1.60;;
18738;SDS011;9498;51.862;19.460;2022-09-03T11:15:33;11.00;;;2.10;;
18738;SDS011;9498;51.862;19.460;2022-09-03T11:18:02;4.17;;;1.90;;
18738;SDS011;9498;51.862;19.460;2022-09-03T11:20:30;3.60;;;2.10;;
18738;SDS011;9498;51.862;19.460;2022-09-03T11:22:59;5.10;;;1.87;;
18738;SDS011;9498;51.862;19.460;2022-09-03T11:25:29;5.03;;;1.95;;
18738;SDS011;9498;51.862;19.460;2022-09-03T11:28:00;4.70;;;2.00;;
18738;SDS011;9498;51.862;19.460;2022-09-03T11:30:36;7.17;;;2.13;;
18738;SDS011;9498;51.862;19.460;2022-09-03T11:33:06;7.27;;;2.10;;
18738;SDS011;9498;51.862;19.460;2022-09-03T11:35:38;3.60;;;1.77;;
18738;SDS011;9498;51.862;19.460;2022-09-03T11:38:07;3.80;;;1.90;;
18738;SDS011;9498;51.862;19.460;2022-09-03T11:40:55;4.43;;;1.87;;
18738;SDS011;9498;51.862;19.460;2022-09-03T11:43:24;5.57;;;1.73;;
18738;SDS011;9498;51.862;19.460;2022-09-03T11:46:01;3.73;;;2.20;;
18738;SDS011;9498;51.862;19.460;2022-09-03T11:48:33;6.47;;;2.47;;
18738;SDS011;9498;51.862;19.460;2022-09-03T11:51:02;4.50;;;2.00;;
18738;SDS011;9498;51.862;19.460;2022-09-03T11:53:33;6.43;;;2.23;;
18738;SDS011;9498;51.862;19.460;2022-09-03T11:56:11;7.27;;;2.57;;
18738;SDS011;9498;51.862;19.460;2022-09-03T11:58:42;5.15;;;2.15;;
18738;SDS011;9498;51.862;19.460;2022-09-03T12:01:11;10.23;;;1.90;;
18738;SDS011;9498;51.862;19.460;2022-09-03T12:03:41;5.93;;;1.80;;
18738;SDS011;9498;51.862;19.460;2022-09-03T12:06:14;4.80;;;2.13;;
18738;SDS011;9498;51.862;19.460;2022-09-03T12:11:35;3.57;;;2.00;;
18738;SDS011;9498;51.862;19.460;2022-09-03T12:14:08;5.50;;;2.33;;
18738;SDS011;9498;51.862;19.460;2022-09-03T12:19:27;4.17;;;1.83;;
18738;SDS011;9498;51.862;19.460;2022-09-03T12:21:56;5.03;;;2.10;;
18738;SDS011;9498;51.862;19.460;2022-09-03T12:24:25;5.63;;;1.97;;
18738;SDS011;9498;51.862;19.460;2022-09-03T12:26:59;3.63;;;1.90;;
18738;SDS011;9498;51.862;19.460;2022-09-03T12:29:28;7.33;;;2.13;;
18738;SDS011;9498;51.862;19.460;2022-09-03T12:32:03;5.60;;;2.20;;
18738;SDS011;9498;51.862;19.460;2022-09-03T12:34:32;4.27;;;1.80;;
18738;SDS011;9498;51.862;19.460;2022-09-03T12:37:00;4.83;;;2.13;;
18738;SDS011;9498;51.862;19.460;2022-09-03T12:39:27;4.23;;;1.93;;
18738;SDS011;9498;51.862;19.460;2022-09-03T12:41:57;6.03;;;2.57;;
18738;SDS011;9498;51.862;19.460;2022-09-03T12:44:29;6.33;;;2.97;;
18738;SDS011;9498;51.862;19.460;2022-09-03T12:46:59;9.50;;;3.40;;
18738;SDS011;9498;51.862;19.460;2022-09-03T12:49:34;4.43;;;2.93;;
18738;SDS011;9498;51.862;19.460;2022-09-03T12:52:04;4.23;;;2.33;;
18738;SDS011;9498;51.862;19.460;2022-09-03T12:54:32;4.90;;;2.33;;
18738;SDS011;9498;51.862;19.460;2022-09-03T12:57:00;6.37;;;2.63;;
18738;SDS011;9498;51.862;19.460;2022-09-03T12:59:28;9.37;;;2.70;;
18738;SDS011;9498;51.862;19.460;2022-09-03T13:01:59;4.17;;;2.40;;
18738;SDS011;9498;51.862;19.460;2022-09-03T13:04:29;5.27;;;2.30;;
18738;SDS011;9498;51.862;19.460;2022-09-03T13:07:00;5.87;;;2.30;;
18738;SDS011;9498;51.862;19.460;2022-09-03T13:09:28;4.20;;;2.30;;
18738;SDS011;9498;51.862;19.460;2022-09-03T13:11:56;5.20;;;2.77;;
18738;SDS011;9498;51.862;19.460;2022-09-03T13:14:25;4.17;;;2.07;;
18738;SDS011;9498;51.862;19.460;2022-09-03T13:17:05;8.40;;;3.47;;
18738;SDS011;9498;51.862;19.460;2022-09-03T13:19:36;5.83;;;2.43;;
18738;SDS011;9498;51.862;19.460;2022-09-03T13:22:10;7.60;;;2.60;;
18738;SDS011;9498;51.862;19.460;2022-09-03T13:24:46;5.97;;;2.53;;
18738;SDS011;9498;51.862;19.460;2022-09-03T13:27:16;10.83;;;2.50;;
18738;SDS011;9498;51.862;19.460;2022-09-03T13:29:52;10.37;;;2.70;;
18738;SDS011;9498;51.862;19.460;2022-09-03T13:32:24;7.10;;;2.77;;
18738;SDS011;9498;51.862;19.460;2022-09-03T13:34:53;6.73;;;3.20;;
18738;SDS011;9498;51.862;19.460;2022-09-03T13:37:24;10.93;;;4.40;;
18738;SDS011;9498;51.862;19.460;2022-09-03T13:39:52;14.13;;;4.50;;
18738;SDS011;9498;51.862;19.460;2022-09-03T13:42:21;8.50;;;3.80;;
18738;SDS011;9498;51.862;19.460;2022-09-03T13:44:54;9.37;;;3.73;;
18738;SDS011;9498;51.862;19.460;2022-09-03T13:47:25;7.17;;;2.90;;
18738;SDS011;9498;51.862;19.460;2022-09-03T13:49:55;8.50;;;2.67;;
18738;SDS011;9498;51.862;19.460;2022-09-03T13:52:41;6.03;;;2.57;;
18738;SDS011;9498;51.862;19.460;2022-09-03T13:55:11;4.77;;;2.50;;
18738;SDS011;9498;51.862;19.460;2022-09-03T13:57:45;5.83;;;2.63;;
18738;SDS011;9498;51.862;19.460;2022-09-03T14:00:21;5.47;;;2.83;;
18738;SDS011;9498;51.862;19.460;2022-09-03T14:02:49;3.87;;;2.30;;
18738;SDS011;9498;51.862;19.460;2022-09-03T14:05:19;8.27;;;2.77;;
18738;SDS011;9498;51.862;19.460;2022-09-03T14:07:57;6.37;;;2.63;;
18738;SDS011;9498;51.862;19.460;2022-09-03T14:10:30;7.53;;;2.73;;
18738;SDS011;9498;51.862;19.460;2022-09-03T14:13:05;6.00;;;2.50;;
18738;SDS011;9498;51.862;19.460;2022-09-03T14:15:35;6.30;;;2.90;;
18738;SDS011;9498;51.862;19.460;2022-09-03T14:18:08;7.57;;;3.23;;
18738;SDS011;9498;51.862;19.460;2022-09-03T14:20:39;7.43;;;2.70;;
18738;SDS011;9498;51.862;19.460;2022-09-03T14:23:20;6.87;;;2.93;;
18738;SDS011;9498;51.862;19.460;2022-09-03T14:25:51;9.07;;;2.90;;
18738;SDS011;9498;51.862;19.460;2022-09-03T14:28:23;6.40;;;3.30;;
18738;SDS011;9498;51.862;19.460;2022-09-03T14:30:53;7.50;;;2.90;;
18738;SDS011;9498;51.862;19.460;2022-09-03T14:33:26;13.47;;;3.37;;
18738;SDS011;9498;51.862;19.460;2022-09-03T14:36:09;7.73;;;2.73;;
18738;SDS011;9498;51.862;19.460;2022-09-03T14:38:49;7.70;;;2.87;;
18738;SDS011;9498;51.862;19.460;2022-09-03T14:47:15;7.73;;;3.70;;
18738;SDS011;9498;51.862;19.460;2022-09-03T14:49:50;7.33;;;3.60;;
18738;SDS011;9498;51.862;19.460;2022-09-03T14:52:28;8.63;;;3.27;;
18738;SDS011;9498;51.862;19.460;2022-09-03T14:55:11;7.63;;;2.90;;
18738;SDS011;9498;51.862;19.460;2022-09-03T14:57:56;6.37;;;3.10;;
18738;SDS011;9498;51.862;19.460;2022-09-03T15:00:30;6.07;;;3.17;;
18738;SDS011;9498;51.862;19.460;2022-09-03T15:03:12;8.73;;;3.10;;
18738;SDS011;9498;51.862;19.460;2022-09-03T15:05:43;8.50;;;3.30;;
18738;SDS011;9498;51.862;19.460;2022-09-03T15:08:16;8.33;;;3.40;;
18738;SDS011;9498;51.862;19.460;2022-09-03T15:10:50;8.63;;;3.37;;
18738;SDS011;9498;51.862;19.460;2022-09-03T15:13:19;13.93;;;3.17;;
18738;SDS011;9498;51.862;19.460;2022-09-03T15:15:51;10.00;;;3.13;;
18738;SDS011;9498;51.862;19.460;2022-09-03T15:18:24;8.33;;;2.90;;
18738;SDS011;9498;51.862;19.460;2022-09-03T15:20:53;7.57;;;2.60;;